Time;durP1;ratioP1;P1;durP2;ratioP2;P2;SDS_P1;SDS_P2;PMS_P1;PMS_P2;Temp;Humidity;BMP_temperature;BMP_pressure;BME280_temperature;BME280_humidity;BME280_pressure;Samples;Min_cycle;Max_cycle;Signal;HPM_P1;HPM_P2
2022/04/30 00:02:18;;;;;;;13.93;5.18;;;6.40;99.90;;;;;;5016168;28;20038;-51
2022/04/30 00:04:48;;;;;;;13.80;6.45;;;6.40;99.90;;;;;;5007958;28;20077;-49
2022/04/30 00:07:19;;;;;;;11.40;5.20;;;6.30;99.90;;;;;;5013570;28;20109;-49
2022/04/30 00:09:47;;;;;;;12.57;5.30;;;6.40;99.90;;;;;;5014313;28;20496;-52
2022/04/30 00:12:13;;;;;;;10.15;5.88;;;6.30;99.90;;;;;;5012910;28;20413;-52
2022/04/30 00:14:39;;;;;;;12.23;5.80;;;6.20;99.90;;;;;;5001293;28;20037;-49
2022/04/30 00:17:06;;;;;;;13.77;5.57;;;6.30;99.90;;;;;;5016974;28;20060;-50
2022/04/30 00:19:32;;;;;;;11.52;5.60;;;6.20;99.90;;;;;;5018191;28;20079;-49
2022/04/30 00:21:58;;;;;;;10.40;6.13;;;6.20;99.90;;;;;;5016295;28;20038;-49
2022/04/30 00:24:26;;;;;;;14.07;6.03;;;6.30;99.90;;;;;;5000310;28;20038;-50
2022/04/30 00:26:52;;;;;;;13.23;5.40;;;6.30;99.90;;;;;;5017567;28;20133;-49
2022/04/30 00:29:17;;;;;;;10.50;5.68;;;6.40;99.90;;;;;;5017172;28;20053;-50
2022/04/30 00:31:43;;;;;;;11.80;5.85;;;6.40;99.90;;;;;;5018484;28;20046;-50
2022/04/30 00:34:09;;;;;;;10.73;6.63;;;6.40;99.90;;;;;;5016072;28;20038;-50
2022/04/30 00:36:36;;;;;;;12.63;5.47;;;6.40;99.90;;;;;;5000253;28;20081;-49
2022/04/30 00:39:03;;;;;;;11.95;5.88;;;6.40;99.90;;;;;;5016938;28;20178;-49
2022/04/30 00:41:32;;;;;;;11.10;5.85;;;6.40;99.90;;;;;;5018024;28;20097;-51
2022/04/30 00:43:58;;;;;;;11.60;5.95;;;6.40;99.90;;;;;;5015198;28;20049;-49
2022/04/30 00:46:25;;;;;;;11.70;5.30;;;6.30;99.90;;;;;;5017388;28;20045;-51
2022/04/30 00:48:53;;;;;;;12.35;6.07;;;6.30;99.90;;;;;;5018304;28;20057;-52
2022/04/30 00:51:21;;;;;;;11.25;5.65;;;6.30;99.90;;;;;;5016069;28;20034;-51
2022/04/30 00:53:49;;;;;;;9.82;5.65;;;6.30;99.90;;;;;;5017843;28;20072;-52
2022/04/30 00:56:18;;;;;;;11.90;5.70;;;6.20;99.90;;;;;;5016812;28;20045;-54
2022/04/30 00:58:47;;;;;;;11.70;5.90;;;6.20;99.90;;;;;;5017503;28;20054;-53
2022/04/30 01:01:14;;;;;;;11.07;5.93;;;6.30;99.90;;;;;;5016961;28;20117;-50
2022/04/30 01:03:40;;;;;;;11.52;6.13;;;6.30;99.90;;;;;;5016536;28;20081;-53
2022/04/30 01:06:06;;;;;;;12.85;6.30;;;6.30;99.90;;;;;;5000794;28;20042;-54
2022/04/30 01:08:33;;;;;;;12.05;6.20;;;6.20;99.90;;;;;;5016253;28;20065;-51
2022/04/30 01:11:04;;;;;;;12.07;6.45;;;6.20;99.90;;;;;;5020757;28;20042;-51
2022/04/30 01:13:36;;;;;;;12.10;6.53;;;6.20;99.90;;;;;;5020126;28;20063;-49
2022/04/30 01:16:08;;;;;;;12.75;5.78;;;6.20;99.90;;;;;;5024160;28;20080;-52
2022/04/30 01:18:35;;;;;;;13.77;6.18;;;6.20;99.90;;;;;;5021336;28;20081;-49
2022/04/30 01:21:03;;;;;;;11.20;6.00;;;6.10;99.90;;;;;;5017567;28;20042;-52
2022/04/30 01:23:31;;;;;;;11.93;6.70;;;6.10;99.90;;;;;;5021200;28;20038;-49
2022/04/30 01:25:57;;;;;;;11.05;6.07;;;6.00;99.90;;;;;;5020153;28;20037;-52
2022/04/30 01:28:23;;;;;;;12.05;6.57;;;6.00;99.90;;;;;;5003155;28;20077;-49
2022/04/30 01:30:49;;;;;;;10.95;6.28;;;6.00;99.90;;;;;;5017942;28;20062;-49
2022/04/30 01:38:44;;;;;;;11.98;6.45;;;6.00;99.90;;;;;;5019400;28;20052;-52
2022/04/30 01:41:09;;;;;;;10.63;6.00;;;6.00;99.90;;;;;;5021050;28;20103;-49
2022/04/30 01:43:35;;;;;;;10.60;6.45;;;6.00;99.90;;;;;;5001429;28;20042;-52
2022/04/30 01:46:03;;;;;;;12.63;6.07;;;6.00;99.90;;;;;;5021088;28;20068;-52
2022/04/30 01:48:29;;;;;;;10.98;5.47;;;6.10;99.90;;;;;;5020865;28;20152;-52
2022/04/30 01:50:56;;;;;;;12.00;5.80;;;6.00;99.90;;;;;;5019433;28;20053;-53
2022/04/30 01:53:22;;;;;;;11.63;5.32;;;6.00;99.90;;;;;;5002850;28;20172;-50
2022/04/30 01:55:47;;;;;;;14.02;6.53;;;6.00;99.90;;;;;;5019363;28;20050;-51
2022/04/30 01:58:13;;;;;;;12.85;6.53;;;6.10;99.90;;;;;;5020950;28;20034;-51
2022/04/30 02:00:39;;;;;;;12.13;6.63;;;6.00;99.90;;;;;;5019084;28;20129;-49
2022/04/30 02:03:10;;;;;;;10.98;6.60;;;6.00;99.90;;;;;;5020512;28;20065;-52
2022/04/30 02:05:37;;;;;;;11.00;6.32;;;5.90;99.90;;;;;;5018642;28;20061;-51
2022/04/30 02:08:15;;;;;;;11.18;6.25;;;6.00;99.90;;;;;;5019872;28;20472;-50
2022/04/30 02:10:42;;;;;;;11.40;6.43;;;6.00;99.90;;;;;;5002599;28;20086;-49
2022/04/30 02:13:11;;;;;;;12.65;6.63;;;5.90;99.90;;;;;;5018982;28;20038;-52
2022/04/30 02:15:41;;;;;;;12.93;6.45;;;5.90;99.90;;;;;;5020265;28;20072;-53
2022/04/30 02:18:10;;;;;;;15.63;6.13;;;5.90;99.90;;;;;;5019672;28;20041;-50
2022/04/30 02:20:38;;;;;;;12.43;6.20;;;6.00;99.90;;;;;;5019006;28;20049;-51
2022/04/30 02:23:08;;;;;;;10.50;5.75;;;5.90;99.90;;;;;;5002521;28;20446;-51
2022/04/30 02:25:34;;;;;;;13.85;6.30;;;5.90;99.90;;;;;;5018608;28;20038;-50
2022/04/30 02:28:04;;;;;;;12.43;6.88;;;5.70;99.90;;;;;;5020331;28;20045;-52
2022/04/30 02:30:31;;;;;;;14.00;6.88;;;5.90;99.90;;;;;;5018655;28;20046;-52
2022/04/30 02:33:03;;;;;;;12.57;7.18;;;5.90;99.90;;;;;;5019911;28;20050;-51
2022/04/30 02:35:30;;;;;;;13.20;6.70;;;5.80;99.90;;;;;;5019422;28;20101;-52
2022/04/30 02:37:59;;;;;;;10.70;5.90;;;5.80;99.90;;;;;;5000935;28;20304;-51
2022/04/30 02:40:27;;;;;;;11.60;6.07;;;5.80;99.90;;;;;;5020375;28;20089;-53
2022/04/30 02:42:54;;;;;;;10.35;6.30;;;5.80;99.90;;;;;;5016034;28;20042;-49
2022/04/30 02:45:22;;;;;;;12.35;6.70;;;5.80;99.90;;;;;;5016937;28;20494;-51
2022/04/30 02:47:53;;;;;;;11.48;6.57;;;5.90;99.90;;;;;;5018616;28;20097;-52
2022/04/30 02:50:20;;;;;;;11.77;5.53;;;5.90;99.90;;;;;;5017396;28;20046;-49
2022/04/30 02:52:46;;;;;;;13.88;6.50;;;5.90;99.90;;;;;;5019292;28;20520;-51
2022/04/30 02:55:12;;;;;;;13.45;6.45;;;5.90;99.90;;;;;;5018654;28;20048;-50
2022/04/30 03:00:39;;;;;;;11.07;6.25;;;5.90;99.90;;;;;;5018278;28;20053;-52
2022/04/30 03:03:09;;;;;;;10.20;5.75;;;5.90;99.90;;;;;;5019182;28;20565;-50
2022/04/30 03:05:36;;;;;;;11.20;6.28;;;6.00;99.90;;;;;;5019214;28;20021;-49
2022/04/30 03:08:12;;;;;;;11.55;6.70;;;5.90;99.90;;;;;;5000758;28;20169;-53
2022/04/30 03:10:42;;;;;;;12.63;6.57;;;5.90;99.90;;;;;;5018425;28;20061;-53
2022/04/30 03:13:08;;;;;;;12.15;6.10;;;5.90;99.90;;;;;;5017744;28;20053;-53
2022/04/30 03:15:34;;;;;;;12.02;6.28;;;5.80;99.90;;;;;;5020778;28;20111;-53
2022/04/30 03:23:33;;;;;;;9.95;6.20;;;6.00;99.90;;;;;;5018229;28;20042;-50
2022/04/30 03:25:59;;;;;;;11.38;6.88;;;6.00;99.90;;;;;;5017578;28;20042;-53
2022/04/30 03:28:25;;;;;;;12.60;5.78;;;6.00;99.90;;;;;;5019437;28;20072;-54
2022/04/30 03:30:50;;;;;;;12.18;6.80;;;6.00;99.90;;;;;;5018001;28;20042;-53
2022/04/30 03:33:17;;;;;;;11.23;6.13;;;5.90;99.90;;;;;;5017614;28;20053;-50
2022/04/30 03:35:43;;;;;;;11.85;6.38;;;5.90;99.90;;;;;;5018790;28;20053;-51
2022/04/30 03:38:09;;;;;;;13.00;6.45;;;5.90;99.90;;;;;;5017451;28;20490;-53
2022/04/30 03:40:38;;;;;;;10.93;6.68;;;5.80;99.90;;;;;;5018823;28;20034;-50
2022/04/30 03:43:05;;;;;;;10.38;5.95;;;5.90;99.90;;;;;;5017310;28;20046;-51
2022/04/30 03:45:30;;;;;;;11.25;6.63;;;6.00;99.90;;;;;;5018480;28;20068;-50
2022/04/30 03:47:56;;;;;;;10.73;6.05;;;6.00;99.90;;;;;;4983710;28;20113;-52
2022/04/30 03:50:22;;;;;;;13.48;6.80;;;6.10;99.90;;;;;;5018121;28;20060;-53
2022/04/30 03:52:47;;;;;;;9.27;5.72;;;6.00;99.90;;;;;;5000263;28;20057;-49
2022/04/30 03:55:16;;;;;;;11.52;6.57;;;6.00;99.90;;;;;;4982649;28;20050;-54
2022/04/30 03:57:42;;;;;;;11.13;6.10;;;6.10;99.90;;;;;;5017283;28;20065;-52
2022/04/30 04:00:10;;;;;;;11.23;6.22;;;6.00;99.90;;;;;;5017383;28;20041;-52
2022/04/30 04:02:39;;;;;;;9.30;5.57;;;6.10;99.90;;;;;;5018218;28;20048;-53
2022/04/30 04:05:08;;;;;;;10.52;6.25;;;6.00;99.90;;;;;;5015120;28;20097;-49
2022/04/30 04:07:34;;;;;;;10.25;5.70;;;6.00;99.90;;;;;;5018235;28;20108;-53
2022/04/30 04:09:59;;;;;;;9.50;5.95;;;6.00;99.90;;;;;;5018627;28;20046;-52
2022/04/30 04:12:25;;;;;;;12.52;6.55;;;6.00;99.90;;;;;;5016976;28;20054;-50
2022/04/30 04:17:38;;;;;;;10.38;5.85;;;6.00;99.90;;;;;;5016978;28;20100;-53
2022/04/30 04:20:05;;;;;;;10.60;5.90;;;6.10;99.90;;;;;;5016914;28;20033;-53
2022/04/30 04:22:31;;;;;;;10.95;6.25;;;6.00;99.90;;;;;;5016904;28;20102;-51
2022/04/30 04:27:41;;;;;;;10.60;5.53;;;5.90;99.90;;;;;;5018716;28;20076;-49
2022/04/30 04:30:07;;;;;;;10.63;6.35;;;6.00;99.90;;;;;;5016581;28;20042;-49
2022/04/30 04:32:33;;;;;;;12.23;6.43;;;5.90;99.90;;;;;;5017837;28;20085;-52
2022/04/30 04:34:58;;;;;;;13.45;6.20;;;6.00;99.90;;;;;;4998977;28;20041;-50
2022/04/30 04:37:24;;;;;;;10.77;6.57;;;6.00;99.90;;;;;;5018495;28;20057;-51
2022/04/30 04:39:50;;;;;;;10.68;6.57;;;6.10;99.90;;;;;;5019169;28;20052;-50
2022/04/30 04:42:16;;;;;;;12.48;6.85;;;6.10;99.90;;;;;;5018119;28;20050;-51
2022/04/30 04:44:42;;;;;;;11.38;6.80;;;6.10;99.90;;;;;;5004490;28;20081;-49
2022/04/30 04:47:08;;;;;;;10.38;6.75;;;6.20;99.90;;;;;;5004360;28;20053;-52
2022/04/30 04:49:33;;;;;;;11.07;7.25;;;6.20;99.90;;;;;;5023383;28;20085;-52
2022/04/30 04:52:01;;;;;;;13.73;7.53;;;6.30;99.90;;;;;;5021500;28;20054;-52
2022/04/30 04:54:27;;;;;;;11.80;7.47;;;6.30;99.90;;;;;;5022898;28;20053;-53
2022/04/30 04:56:53;;;;;;;10.65;7.05;;;6.30;99.90;;;;;;5022944;28;20080;-52
2022/04/30 04:59:19;;;;;;;12.43;7.50;;;6.40;99.90;;;;;;5022128;28;20042;-52
2022/04/30 05:01:47;;;;;;;14.68;7.60;;;6.50;99.90;;;;;;5023584;28;20053;-52
2022/04/30 05:04:13;;;;;;;12.45;7.13;;;6.50;99.90;;;;;;5021589;28;20050;-51
2022/04/30 05:06:39;;;;;;;13.05;8.13;;;6.50;99.90;;;;;;5023279;28;20048;-52
2022/04/30 05:09:05;;;;;;;13.52;7.30;;;6.60;99.90;;;;;;5021547;28;20122;-52
2022/04/30 05:11:31;;;;;;;11.52;7.20;;;6.70;99.90;;;;;;5022919;28;20108;-51
2022/04/30 05:13:56;;;;;;;15.15;8.20;;;6.80;99.90;;;;;;5004837;28;20073;-51
2022/04/30 05:16:22;;;;;;;11.93;7.03;;;6.80;99.90;;;;;;5039777;28;20523;-51
2022/04/30 05:18:47;;;;;;;11.55;7.57;;;6.80;99.90;;;;;;5039401;28;20542;-52
2022/04/30 05:21:13;;;;;;;11.48;7.95;;;6.90;99.90;;;;;;5010462;28;20425;-49
2022/04/30 05:23:39;;;;;;;13.60;8.18;;;6.90;99.90;;;;;;5007387;28;20050;-50
2022/04/30 05:26:04;;;;;;;14.65;7.70;;;6.90;99.90;;;;;;4989380;28;20167;-53
2022/04/30 05:28:30;;;;;;;12.32;7.38;;;7.00;99.90;;;;;;4984588;28;20081;-52
2022/04/30 05:30:56;;;;;;;12.13;8.20;;;7.10;99.90;;;;;;4981127;28;20540;-53
2022/04/30 05:33:22;;;;;;;13.77;8.40;;;7.10;99.90;;;;;;4999019;28;20054;-54
2022/04/30 05:35:48;;;;;;;11.73;8.02;;;7.20;99.90;;;;;;4982513;28;20796;-51
2022/04/30 05:38:13;;;;;;;15.18;8.85;;;7.30;99.90;;;;;;4998169;28;20080;-52
2022/04/30 05:40:39;;;;;;;12.52;7.85;;;7.30;99.90;;;;;;5000029;28;20050;-52
2022/04/30 05:43:05;;;;;;;13.55;8.25;;;7.30;99.90;;;;;;4997938;28;20054;-50
2022/04/30 05:45:30;;;;;;;12.95;8.05;;;7.40;99.90;;;;;;4999463;28;20758;-52
2022/04/30 05:47:56;;;;;;;14.27;8.52;;;7.40;99.90;;;;;;4998379;28;20034;-51
2022/04/30 05:50:22;;;;;;;12.93;7.60;;;7.50;99.90;;;;;;4981457;28;20046;-52
2022/04/30 05:52:48;;;;;;;13.25;7.60;;;7.60;99.90;;;;;;4998962;28;20050;-52
2022/04/30 05:55:15;;;;;;;14.23;8.02;;;7.60;99.90;;;;;;4997048;28;20068;-49
2022/04/30 05:57:41;;;;;;;11.95;7.95;;;7.70;99.90;;;;;;4999608;28;20058;-48
2022/04/30 06:00:08;;;;;;;11.07;7.32;;;7.60;99.90;;;;;;4998026;28;20088;-53
2022/04/30 06:02:34;;;;;;;12.95;8.18;;;7.60;99.90;;;;;;5033855;28;20049;-54
2022/04/30 06:05:00;;;;;;;14.05;8.27;;;7.70;99.90;;;;;;5017392;28;20042;-51
2022/04/30 06:07:26;;;;;;;12.80;7.55;;;7.70;99.90;;;;;;5018143;28;20065;-53
2022/04/30 06:09:52;;;;;;;13.13;8.43;;;7.70;99.90;;;;;;5018227;28;20072;-54
2022/04/30 06:12:19;;;;;;;13.70;8.32;;;7.70;99.90;;;;;;5017231;28;20072;-52
2022/04/30 06:14:45;;;;;;;26.15;9.10;;;7.70;99.90;;;;;;5023509;28;20050;-54
2022/04/30 06:17:11;;;;;;;14.38;8.30;;;7.70;99.90;;;;;;5036475;28;20076;-52
2022/04/30 06:19:36;;;;;;;12.73;7.88;;;7.70;99.90;;;;;;5038073;28;20575;-50
2022/04/30 06:22:03;;;;;;;12.60;7.88;;;7.70;99.90;;;;;;5036408;28;20060;-51
2022/04/30 06:24:28;;;;;;;14.00;8.20;;;7.80;99.90;;;;;;5037588;28;20064;-52
2022/04/30 06:26:55;;;;;;;14.68;8.32;;;7.90;99.90;;;;;;5037149;28;20080;-51
2022/04/30 06:29:22;;;;;;;11.90;7.88;;;7.90;99.90;;;;;;5035870;28;20053;-53
2022/04/30 06:31:50;;;;;;;12.55;9.02;;;7.90;99.90;;;;;;5037965;28;20703;-49
2022/04/30 06:34:16;;;;;;;14.38;8.07;;;7.90;99.90;;;;;;5036439;28;20125;-52
2022/04/30 06:36:42;;;;;;;13.70;8.70;;;8.00;99.90;;;;;;5037303;28;20800;-53
2022/04/30 06:39:08;;;;;;;13.45;8.07;;;8.10;99.90;;;;;;5036407;28;20073;-52
2022/04/30 06:41:33;;;;;;;14.48;8.25;;;8.10;99.90;;;;;;5036984;28;20110;-53
2022/04/30 06:43:59;;;;;;;13.15;7.80;;;8.20;99.90;;;;;;5037171;28;20057;-52
2022/04/30 06:46:25;;;;;;;15.82;9.13;;;8.30;99.90;;;;;;5036374;28;20056;-53
2022/04/30 06:48:50;;;;;;;14.90;8.07;;;8.30;99.90;;;;;;5037904;28;20037;-53
2022/04/30 06:51:16;;;;;;;12.63;7.47;;;8.40;99.90;;;;;;5035666;28;20053;-52
2022/04/30 06:59:12;;;;;;;14.43;7.78;;;8.50;99.90;;;;;;5035865;28;20057;-52
2022/04/30 07:01:57;;;;;;;16.15;9.13;;;8.40;99.90;;;;;;5024662;28;20046;-52
2022/04/30 07:04:24;;;;;;;13.88;7.20;;;8.40;99.90;;;;;;4991075;28;21321;-52
2022/04/30 07:06:51;;;;;;;14.07;8.27;;;8.40;99.90;;;;;;4962934;28;20042;-52
2022/04/30 07:09:17;;;;;;;13.35;8.10;;;8.40;99.90;;;;;;4983874;28;20037;-48
2022/04/30 07:11:42;;;;;;;14.02;8.43;;;8.40;99.90;;;;;;4982574;28;20076;-49
2022/04/30 07:14:09;;;;;;;15.85;10.13;;;8.50;99.90;;;;;;4980526;28;20050;-51
2022/04/30 07:16:35;;;;;;;16.63;9.30;;;8.50;99.90;;;;;;4981100;28;20089;-49
2022/04/30 07:19:01;;;;;;;14.70;8.68;;;8.50;99.90;;;;;;4981391;28;20514;-49
2022/04/30 07:21:28;;;;;;;15.23;8.13;;;8.50;99.90;;;;;;4977133;28;20054;-51
2022/04/30 07:23:54;;;;;;;13.55;7.82;;;8.70;99.90;;;;;;4981508;28;20045;-50
2022/04/30 07:26:20;;;;;;;12.75;8.40;;;8.60;99.90;;;;;;4982707;28;20072;-52
2022/04/30 07:28:46;;;;;;;12.40;7.95;;;8.50;99.90;;;;;;4981925;28;20046;-50
2022/04/30 07:31:12;;;;;;;15.48;8.20;;;8.70;99.90;;;;;;4984097;28;20850;-52
2022/04/30 07:33:38;;;;;;;15.35;8.52;;;8.80;99.90;;;;;;4980823;28;20046;-52
2022/04/30 07:36:04;;;;;;;11.60;7.78;;;8.90;99.90;;;;;;4978819;28;20046;-53
2022/04/30 07:38:31;;;;;;;12.88;7.30;;;9.00;99.90;;;;;;4982310;28;20050;-48
2022/04/30 07:40:56;;;;;;;10.90;6.72;;;9.00;99.90;;;;;;4967820;28;20077;-51
2022/04/30 07:43:22;;;;;;;12.93;7.15;;;9.10;99.90;;;;;;4968280;28;20066;-50
2022/04/30 07:45:48;;;;;;;11.50;6.40;;;9.10;99.90;;;;;;4977513;28;20414;-53
2022/04/30 07:48:14;;;;;;;11.27;6.18;;;9.20;99.90;;;;;;4959799;28;20057;-52
2022/04/30 07:50:44;;;;;;;9.23;5.63;;;9.20;99.90;;;;;;4976525;28;20898;-49
2022/04/30 07:53:11;;;;;;;9.15;5.25;;;9.20;99.90;;;;;;4980829;28;20065;-52
2022/04/30 07:55:37;;;;;;;11.40;5.88;;;9.30;99.90;;;;;;4978926;28;20058;-53
2022/04/30 07:58:02;;;;;;;10.68;6.50;;;9.50;99.90;;;;;;4979018;28;20053;-53
2022/04/30 08:00:31;;;;;;;11.32;5.75;;;9.50;99.90;;;;;;4976446;28;20053;-50
2022/04/30 08:02:58;;;;;;;11.07;5.47;;;9.40;99.90;;;;;;4976585;28;20095;-51
2022/04/30 08:05:24;;;;;;;9.40;5.80;;;9.60;99.90;;;;;;4978235;28;20290;-52
2022/04/30 08:07:50;;;;;;;9.73;5.00;;;9.60;99.90;;;;;;4977624;28;20046;-53
2022/04/30 08:10:16;;;;;;;10.95;5.40;;;9.80;99.90;;;;;;4972777;28;20595;-49
2022/04/30 08:12:43;;;;;;;9.75;4.95;;;9.90;99.90;;;;;;4981743;28;20042;-52
2022/04/30 08:15:09;;;;;;;11.55;5.65;;;9.90;99.90;;;;;;4980681;28;20078;-52
2022/04/30 08:17:35;;;;;;;9.90;4.93;;;10.10;99.90;;;;;;4973321;28;20046;-52
2022/04/30 08:20:02;;;;;;;8.15;4.50;;;10.30;99.90;;;;;;4960180;28;20117;-50
2022/04/30 08:22:28;;;;;;;8.43;4.78;;;10.40;99.90;;;;;;4960879;28;20058;-50
2022/04/30 08:24:53;;;;;;;7.97;4.00;;;10.40;99.90;;;;;;4978941;28;20053;-53
2022/04/30 08:27:19;;;;;;;8.80;4.25;;;10.50;99.90;;;;;;4976963;28;20108;-52
2022/04/30 08:29:45;;;;;;;7.40;4.05;;;10.60;99.90;;;;;;4974468;28;20054;-52
2022/04/30 08:32:11;;;;;;;10.43;4.88;;;10.80;99.90;;;;;;4979653;28;20065;-52
2022/04/30 08:34:36;;;;;;;11.32;5.10;;;10.90;99.90;;;;;;4980596;28;20133;-53
2022/04/30 08:37:02;;;;;;;9.02;4.80;;;10.90;99.90;;;;;;4981423;28;20055;-53
2022/04/30 08:39:31;;;;;;;7.80;4.82;;;10.90;99.90;;;;;;4979767;28;20039;-51
2022/04/30 08:41:58;;;;;;;10.88;5.60;;;11.10;99.90;;;;;;4978950;28;20089;-51
2022/04/30 08:44:24;;;;;;;9.20;5.25;;;11.30;99.90;;;;;;4982760;28;20054;-50
2022/04/30 08:46:50;;;;;;;12.25;6.00;;;11.40;99.90;;;;;;4978504;28;20223;-49
2022/04/30 08:49:16;;;;;;;7.90;5.15;;;11.40;99.90;;;;;;4980938;28;20065;-50
2022/04/30 08:51:42;;;;;;;10.32;4.53;;;11.30;99.90;;;;;;4979941;28;20049;-53
2022/04/30 08:54:08;;;;;;;12.35;5.63;;;11.40;99.90;;;;;;4982436;28;20042;-52
2022/04/30 08:56:35;;;;;;;8.48;4.60;;;11.60;99.90;;;;;;4979619;28;20186;-52
2022/04/30 08:59:04;;;;;;;8.55;4.85;;;11.40;99.90;;;;;;4975796;28;20085;-54
2022/04/30 09:01:32;;;;;;;10.80;5.38;;;11.60;99.90;;;;;;4977867;28;20078;-53
2022/04/30 09:03:58;;;;;;;8.43;4.57;;;11.70;99.90;;;;;;4976740;28;20246;-51
2022/04/30 09:06:25;;;;;;;11.20;5.35;;;11.80;99.90;;;;;;4976091;28;20047;-50
2022/04/30 09:08:51;;;;;;;10.52;4.93;;;11.90;99.90;;;;;;4973105;28;20125;-50
2022/04/30 09:11:26;;;;;;;7.38;4.60;;;12.00;99.90;;;;;;4957982;28;20054;-50
2022/04/30 09:13:52;;;;;;;10.23;5.00;;;12.00;99.90;;;;;;4975633;28;20077;-53
2022/04/30 09:16:22;;;;;;;9.57;5.47;;;12.10;99.90;;;;;;5011324;28;20035;-53
2022/04/30 09:18:49;;;;;;;9.75;5.45;;;12.20;99.90;;;;;;5006616;28;20072;-53
2022/04/30 09:21:15;;;;;;;9.43;5.22;;;12.10;99.90;;;;;;5014527;28;20481;-52
2022/04/30 09:23:42;;;;;;;9.30;5.25;;;12.10;99.90;;;;;;5010611;28;20050;-53
2022/04/30 09:26:07;;;;;;;9.43;5.03;;;12.10;99.90;;;;;;5002202;28;20066;-52
2022/04/30 09:28:36;;;;;;;13.68;5.47;;;12.10;99.90;;;;;;5011004;28;20042;-53
2022/04/30 09:31:13;;;;;;;10.00;5.30;;;12.00;99.90;;;;;;5002073;28;20074;-51
2022/04/30 09:37:41;;;;;;;13.73;6.07;;;12.00;99.90;;;;;;4989921;28;20129;-53
2022/04/30 09:39:34;;;;;;;9.98;5.25;;;11.90;99.90;;;;;;5021835;28;20041;-50
2022/04/30 09:42:03;;;;;;;10.70;5.85;;;11.90;99.90;;;;;;5016481;28;20066;-52
2022/04/30 09:44:30;;;;;;;11.02;5.72;;;11.90;99.90;;;;;;5011745;28;20046;-53
2022/04/30 09:46:56;;;;;;;14.75;6.38;;;11.90;99.90;;;;;;5008687;28;20054;-49
2022/04/30 09:54:51;;;;;;;9.55;6.15;;;11.90;99.90;;;;;;5020331;28;20049;-52
2022/04/30 09:57:20;;;;;;;11.88;6.72;;;11.50;99.90;;;;;;5012277;28;20050;-50
2022/04/30 09:59:54;;;;;;;10.10;5.93;;;11.60;99.90;;;;;;4990700;28;20612;-52
2022/04/30 10:02:21;;;;;;;10.77;5.57;;;11.70;99.90;;;;;;5020711;28;20053;-53
2022/04/30 10:04:47;;;;;;;11.48;6.20;;;11.70;99.90;;;;;;5020769;28;20617;-52
2022/04/30 10:07:16;;;;;;;13.50;6.35;;;11.80;99.90;;;;;;5021694;28;20120;-51
2022/04/30 10:09:50;;;;;;;11.30;6.03;;;11.90;99.90;;;;;;5021860;28;20049;-53
2022/04/30 10:12:57;;;;;;;13.27;4.97;;;11.90;99.90;;;;;;5002861;28;20085;-52
2022/04/30 10:15:36;;;;;;;13.00;5.20;;;11.60;99.90;;;;;;5022962;28;20112;-53
2022/04/30 10:18:02;;;;;;;11.10;5.55;;;11.80;99.90;;;;;;5041037;28;20071;-53
2022/04/30 10:20:34;;;;;;;13.30;6.05;;;11.70;99.90;;;;;;5040541;28;20093;-53
2022/04/30 10:23:00;;;;;;;9.43;5.65;;;11.60;99.90;;;;;;5026657;28;20056;-50
2022/04/30 10:25:34;;;;;;;7.53;4.95;;;11.60;99.90;;;;;;5018793;28;20044;-49
2022/04/30 10:28:15;;;;;;;11.05;5.93;;;11.70;99.90;;;;;;5019388;28;20046;-51
2022/04/30 10:30:42;;;;;;;10.68;5.57;;;11.70;99.90;;;;;;5009382;28;20046;-50
2022/04/30 10:33:09;;;;;;;13.18;5.88;;;11.60;99.90;;;;;;5020827;28;20034;-53
2022/04/30 10:35:45;;;;;;;11.80;5.22;;;11.70;99.90;;;;;;5021325;28;20108;-49
2022/04/30 10:38:12;;;;;;;9.48;5.40;;;11.80;99.90;;;;;;5019049;28;20069;-51
2022/04/30 10:40:40;;;;;;;13.57;5.78;;;11.80;99.90;;;;;;5021096;28;20065;-53
2022/04/30 10:43:31;;;;;;;11.05;5.47;;;11.80;99.90;;;;;;5019333;28;20056;-52
2022/04/30 10:46:03;;;;;;;10.43;5.63;;;12.00;99.90;;;;;;5019133;28;20045;-51
2022/04/30 10:48:29;;;;;;;11.23;5.60;;;11.90;99.90;;;;;;5019895;28;20045;-56
2022/04/30 10:51:15;;;;;;;10.52;5.45;;;11.70;99.90;;;;;;5017682;28;20333;-51
2022/04/30 10:53:46;;;;;;;12.27;5.50;;;11.80;99.90;;;;;;5014923;28;20122;-53
2022/04/30 10:56:13;;;;;;;10.65;5.22;;;11.70;99.90;;;;;;5003116;28;20050;-54
2022/04/30 10:58:41;;;;;;;11.65;5.50;;;11.80;99.90;;;;;;5016233;28;20044;-51
2022/04/30 11:01:18;;;;;;;11.85;5.78;;;11.70;99.90;;;;;;5016130;28;20046;-53
2022/04/30 11:03:46;;;;;;;12.02;5.53;;;11.80;99.90;;;;;;5014421;28;20057;-53
2022/04/30 11:06:18;;;;;;;11.18;5.40;;;11.70;99.90;;;;;;5016659;28;20042;-49
2022/04/30 11:08:43;;;;;;;9.02;5.30;;;11.60;99.90;;;;;;5014719;28;20050;-51
2022/04/30 11:11:09;;;;;;;14.13;6.18;;;11.60;99.90;;;;;;5015863;28;20129;-52
2022/04/30 11:13:35;;;;;;;9.60;5.25;;;11.60;99.90;;;;;;4997154;28;20050;-53
2022/04/30 11:16:00;;;;;;;11.13;5.45;;;11.60;99.90;;;;;;5015917;28;20109;-52
2022/04/30 11:18:26;;;;;;;11.35;4.60;;;11.50;99.90;;;;;;5016243;28;20587;-53
2022/04/30 11:21:00;;;;;;;10.75;5.55;;;11.50;99.90;;;;;;5014104;28;20471;-50
2022/04/30 11:23:25;;;;;;;10.40;5.43;;;11.50;99.90;;;;;;5013572;28;20053;-52
2022/04/30 11:25:51;;;;;;;10.57;5.82;;;11.50;99.90;;;;;;5014747;28;20042;-52
2022/04/30 11:28:17;;;;;;;11.55;5.90;;;11.40;99.90;;;;;;5015873;28;20044;-51
2022/04/30 11:30:45;;;;;;;9.65;5.55;;;11.50;99.90;;;;;;4996549;28;20940;-48
2022/04/30 11:33:12;;;;;;;9.65;5.40;;;11.30;99.90;;;;;;5015689;28;20038;-52
2022/04/30 11:35:38;;;;;;;10.02;5.00;;;11.40;99.90;;;;;;5015931;28;20077;-52
2022/04/30 11:38:09;;;;;;;9.55;5.35;;;11.30;99.90;;;;;;5014326;28;20037;-50
2022/04/30 11:40:35;;;;;;;10.90;6.38;;;11.30;99.90;;;;;;5006426;28;20111;-52
2022/04/30 11:43:02;;;;;;;11.50;6.43;;;11.40;99.90;;;;;;5015225;28;20058;-53
2022/04/30 11:45:32;;;;;;;14.13;6.70;;;11.40;99.90;;;;;;5015436;28;20063;-51
2022/04/30 11:47:59;;;;;;;12.30;7.05;;;11.40;99.90;;;;;;5012776;28;20030;-53
2022/04/30 11:50:26;;;;;;;13.57;6.95;;;11.40;99.90;;;;;;5014897;28;20038;-50
2022/04/30 11:52:53;;;;;;;14.25;6.18;;;11.30;99.90;;;;;;5015565;28;20076;-52
2022/04/30 11:55:22;;;;;;;10.93;6.20;;;11.40;99.90;;;;;;5013062;28;20068;-50
2022/04/30 11:57:49;;;;;;;11.32;6.53;;;11.30;99.90;;;;;;5016943;28;20046;-52
2022/04/30 12:00:17;;;;;;;11.63;6.70;;;11.40;99.90;;;;;;5015149;28;20080;-52
2022/04/30 12:02:46;;;;;;;13.07;6.75;;;11.40;99.90;;;;;;5016579;28;20042;-52
2022/04/30 12:05:13;;;;;;;12.02;6.68;;;11.30;99.90;;;;;;5013617;28;20053;-50
2022/04/30 12:07:43;;;;;;;12.63;6.88;;;11.30;99.90;;;;;;5013752;28;20069;-52
2022/04/30 12:10:24;;;;;;;10.90;6.97;;;11.10;99.90;;;;;;5015878;28;20081;-52
2022/04/30 12:12:51;;;;;;;13.38;10.00;;;11.20;99.90;;;;;;4995438;28;20104;-52
2022/04/30 12:15:26;;;;;;;10.98;6.88;;;11.10;99.90;;;;;;5016927;28;20056;-52
2022/04/30 12:26:40;;;;;;;12.02;5.70;;;11.00;99.90;;;;;;5014256;28;20058;-52
2022/04/30 12:29:22;;;;;;;11.35;5.97;;;11.00;99.90;;;;;;5014339;28;20098;-53
2022/04/30 12:31:51;;;;;;;12.80;6.20;;;11.00;99.90;;;;;;5014802;28;20054;-50
2022/04/30 12:34:32;;;;;;;10.75;6.10;;;11.10;99.90;;;;;;5013049;28;20446;-52
2022/04/30 12:37:00;;;;;;;9.77;5.30;;;11.00;99.90;;;;;;5013098;28;22039;-52
2022/04/30 12:39:26;;;;;;;10.02;5.82;;;11.20;99.90;;;;;;5013386;28;20426;-51
2022/04/30 12:41:53;;;;;;;14.30;6.03;;;11.20;99.90;;;;;;5013675;28;20870;-51
2022/04/30 12:44:20;;;;;;;10.90;5.53;;;11.40;99.90;;;;;;5015006;28;20853;-49
2022/04/30 12:46:47;;;;;;;10.40;5.28;;;11.40;99.90;;;;;;5012966;28;20054;-51
2022/04/30 12:49:14;;;;;;;10.75;5.20;;;11.50;99.90;;;;;;5013025;28;20045;-53
2022/04/30 12:51:41;;;;;;;10.32;5.25;;;11.40;99.90;;;;;;5013076;28;20037;-51
2022/04/30 12:54:12;;;;;;;11.48;5.95;;;11.40;99.90;;;;;;5014767;28;20089;-52
2022/04/30 12:56:41;;;;;;;9.32;5.18;;;11.60;99.90;;;;;;5012195;28;20573;-53
2022/04/30 12:59:08;;;;;;;12.70;6.05;;;11.60;99.90;;;;;;5013817;28;20088;-52
2022/04/30 13:01:34;;;;;;;11.32;7.60;;;11.70;99.90;;;;;;5014588;28;20046;-50
2022/04/30 13:04:01;;;;;;;13.52;5.07;;;11.70;99.90;;;;;;5013458;28;20091;-51
2022/04/30 13:06:29;;;;;;;10.57;4.78;;;11.70;99.90;;;;;;5019523;28;20056;-49
2022/04/30 13:14:24;;;;;;;11.88;7.03;;;11.90;99.90;;;;;;5015452;28;20042;-52
2022/04/30 13:16:50;;;;;;;13.05;6.85;;;11.80;99.90;;;;;;4999151;28;20061;-53
2022/04/30 13:19:16;;;;;;;11.50;6.75;;;11.80;99.90;;;;;;5017968;28;20069;-53
2022/04/30 13:21:46;;;;;;;12.57;7.55;;;11.80;99.90;;;;;;5016593;28;20045;-49
2022/04/30 13:24:13;;;;;;;13.15;7.63;;;11.90;99.90;;;;;;5017862;28;20050;-51
2022/04/30 13:26:39;;;;;;;11.07;6.97;;;11.90;99.90;;;;;;5017781;28;20068;-51
2022/04/30 13:29:05;;;;;;;10.50;6.47;;;12.00;99.90;;;;;;5016507;28;20113;-52
2022/04/30 13:31:30;;;;;;;10.35;6.32;;;12.10;99.90;;;;;;5017979;28;20046;-52
2022/04/30 13:33:56;;;;;;;12.55;6.40;;;12.20;99.90;;;;;;5016836;28;20034;-53